Time,TemperatureF,DewpointF,PressureIn,WindDirection,WindDirectionDegrees,WindSpeedMPH,WindSpeedGustMPH,Humidity,HourlyPrecipIn,Conditions,Clouds,dailyrainin,SolarRadiationWatts/m^2,SoftwareType,DateUTC
2013-03-25 00:00:00,55.6,11.5,29.86,NW,319,0.0,0.0,17,0.00,,,0.00,0,WeatherTracker,2013-03-25 07:00:00,
2013-03-25 00:10:00,55.2,12.5,29.86,NW,319,0.0,0.0,18,0.00,,,0.00,0,WeatherTracker,2013-03-25 07:10:00,
2013-03-25 00:20:00,54.4,11.8,29.87,NW,319,0.0,0.0,18,0.00,,,0.00,0,WeatherTracker,2013-03-25 07:20:00,
2013-03-25 00:30:00,53.9,12.6,29.87,NW,319,0.0,0.0,19,0.00,,,0.00,0,WeatherTracker,2013-03-25 07:30:00,
2013-03-25 00:40:00,53.4,11.0,29.87,NW,319,0.0,0.0,18,0.00,,,0.00,0,WeatherTracker,2013-03-25 07:40:00,
2013-03-25 00:45:00,53.2,12.0,29.87,NW,319,0.0,0.0,19,0.00,,,0.00,0,WeatherTracker,2013-03-25 07:45:00,
2013-03-25 00:55:00,52.7,11.6,29.87,NW,319,0.0,0.0,19,0.00,,,0.00,0,WeatherTracker,2013-03-25 07:55:00,
2013-03-25 01:00:00,52.5,12.6,29.87,NW,319,0.0,0.0,20,0.00,,,0.00,0,WeatherTracker,2013-03-25 08:00:00,
2013-03-25 01:05:00,52.4,12.5,29.87,NW,319,0.0,0.0,20,0.00,,,0.00,0,WeatherTracker,2013-03-25 08:05:00,
2013-03-25 01:15:00,52.3,11.3,29.86,NW,319,0.0,0.0,19,0.00,,,0.00,0,WeatherTracker,2013-03-25 08:15:00,
2013-03-25 01:20:00,52.3,11.3,29.86,NW,319,0.0,0.0,19,0.00,,,0.00,0,WeatherTracker,2013-03-25 08:20:00,
2013-03-25 01:30:00,52.1,13.4,29.86,NW,319,0.0,0.0,21,0.00,,,0.00,0,WeatherTracker,2013-03-25 08:30:00,
2013-03-25 01:35:00,51.9,13.2,29.86,NW,319,0.0,0.0,21,0.00,,,0.00,0,WeatherTracker,2013-03-25 08:35:00,
2013-03-25 01:40:00,51.8,13.1,29.86,NW,319,0.0,0.0,21,0.00,,,0.00,0,WeatherTracker,2013-03-25 08:40:00,
2013-03-25 01:45:00,51.7,14.1,29.86,NW,319,0.0,0.0,22,0.00,,,0.00,0,WeatherTracker,2013-03-25 08:45:00,
2013-03-25 01:50:00,51.5,13.9,29.86,NW,319,0.0,0.0,22,0.00,,,0.00,0,WeatherTracker,2013-03-25 08:50:00,
2013-03-25 02:00:00,51.3,13.8,29.86,NW,319,0.0,0.0,22,0.00,,,0.00,0,WeatherTracker,2013-03-25 09:00:00,
2013-03-25 02:05:00,51.3,14.8,29.86,NW,319,0.0,0.0,23,0.00,,,0.00,0,WeatherTracker,2013-03-25 09:05:00,
2013-03-25 02:10:00,51.2,15.7,29.86,NW,319,0.0,0.0,24,0.00,,,0.00,0,WeatherTracker,2013-03-25 09:10:00,
2013-03-25 02:15:00,51.1,15.6,29.86,NW,319,0.0,0.0,24,0.00,,,0.00,0,WeatherTracker,2013-03-25 09:15:00,
2013-03-25 02:25:00,50.8,14.4,29.86,NW,319,0.0,0.0,23,0.00,,,0.00,0,WeatherTracker,2013-03-25 09:25:00,
2013-03-25 02:30:00,50.6,15.2,29.86,NW,319,0.0,0.0,24,0.00,,,0.00,0,WeatherTracker,2013-03-25 09:30:00,
2013-03-25 02:40:00,50.4,15.0,29.86,NW,319,0.0,0.0,24,0.00,,,0.00,0,WeatherTracker,2013-03-25 09:40:00,
2013-03-25 02:45:00,50.2,14.8,29.86,NW,319,0.0,0.0,24,0.00,,,0.00,0,WeatherTracker,2013-03-25 09:45:00,
2013-03-25 02:55:00,49.8,16.3,29.85,NW,319,0.0,0.0,26,0.00,,,0.00,0,WeatherTracker,2013-03-25 09:55:00,
2013-03-25 03:00:00,49.4,15.1,29.85,NW,319,0.0,0.0,25,0.00,,,0.00,0,WeatherTracker,2013-03-25 10:00:00,
2013-03-25 03:10:00,48.8,14.6,29.85,NW,319,0.0,0.0,25,0.00,,,0.00,0,WeatherTracker,2013-03-25 10:10:00,
2013-03-25 03:15:00,48.8,14.6,29.85,NW,319,0.0,0.0,25,0.00,,,0.00,0,WeatherTracker,2013-03-25 10:15:00,
2013-03-25 03:25:00,48.6,16.2,29.85,NW,319,0.0,0.0,27,0.00,,,0.00,0,WeatherTracker,2013-03-25 10:25:00,
2013-03-25 03:30:00,48.5,16.1,29.85,NW,319,0.0,0.0,27,0.00,,,0.00,0,WeatherTracker,2013-03-25 10:30:00,
2013-03-25 03:35:00,48.3,15.9,29.86,NW,319,0.0,0.0,27,0.00,,,0.00,0,WeatherTracker,2013-03-25 10:35:00,
2013-03-25 03:40:00,48.2,14.9,29.86,NW,319,0.0,0.0,26,0.00,,,0.00,0,WeatherTracker,2013-03-25 10:40:00,
2013-03-25 03:45:00,48.1,15.7,29.86,NW,319,0.0,0.0,27,0.00,,,0.00,0,WeatherTracker,2013-03-25 10:45:00,
2013-03-25 03:50:00,48.0,15.6,29.86,NW,319,0.0,0.0,27,0.00,,,0.00,0,WeatherTracker,2013-03-25 10:50:00,
2013-03-25 04:00:00,47.9,16.4,29.86,NW,319,0.0,0.0,28,0.00,,,0.00,0,WeatherTracker,2013-03-25 11:00:00,
2013-03-25 04:05:00,47.8,16.3,29.86,NW,319,0.0,0.0,28,0.00,,,0.00,0,WeatherTracker,2013-03-25 11:05:00,
2013-03-25 04:15:00,47.8,15.5,29.86,NW,319,0.0,0.0,27,0.00,,,0.00,0,WeatherTracker,2013-03-25 11:15:00,
2013-03-25 04:20:00,47.8,15.5,29.86,NW,319,0.0,0.0,27,0.00,,,0.00,0,WeatherTracker,2013-03-25 11:20:00,
2013-03-25 04:25:00,47.8,16.3,29.86,NW,319,0.0,0.0,28,0.00,,,0.00,0,WeatherTracker,2013-03-25 11:25:00,
2013-03-25 04:35:00,47.5,16.0,29.86,NW,319,0.0,0.0,28,0.00,,,0.00,0,WeatherTracker,2013-03-25 11:35:00,
2013-03-25 04:45:00,47.2,15.8,29.87,NW,319,0.0,0.0,28,0.00,,,0.00,0,WeatherTracker,2013-03-25 11:45:00,
2013-03-25 04:55:00,47.0,17.2,29.86,NW,319,0.0,0.0,30,0.00,,,0.00,0,WeatherTracker,2013-03-25 11:55:00,
2013-03-25 05:05:00,46.8,16.2,29.86,NW,319,0.0,0.0,29,0.00,,,0.00,0,WeatherTracker,2013-03-25 12:05:00,
2013-03-25 05:10:00,46.7,16.2,29.86,NW,319,0.0,0.0,29,0.00,,,0.00,0,WeatherTracker,2013-03-25 12:10:00,
2013-03-25 05:20:00,46.5,16.0,29.87,NW,319,0.0,0.0,29,0.00,,,0.00,0,WeatherTracker,2013-03-25 12:20:00,
2013-03-25 05:30:00,46.3,16.6,29.87,NW,319,0.0,0.0,30,0.00,,,0.00,0,WeatherTracker,2013-03-25 12:30:00,
2013-03-25 05:35:00,46.1,16.4,29.87,NW,319,0.0,0.0,30,0.00,,,0.00,0,WeatherTracker,2013-03-25 12:35:00,
2013-03-25 05:40:00,46.0,16.3,29.87,NW,319,0.0,0.0,30,0.00,,,0.00,0,WeatherTracker,2013-03-25 12:40:00,
2013-03-25 05:50:00,46.2,15.7,29.88,NW,319,0.0,0.0,29,0.00,,,0.00,0,WeatherTracker,2013-03-25 12:50:00,
2013-03-25 05:55:00,46.3,15.8,29.88,NW,319,0.0,0.0,29,0.00,,,0.00,0,WeatherTracker,2013-03-25 12:55:00,
2013-03-25 06:05:00,46.5,16.0,29.88,NW,319,0.0,0.0,29,0.00,,,0.00,0,WeatherTracker,2013-03-25 13:05:00,
2013-03-25 06:15:00,46.6,16.8,29.89,NW,319,0.0,0.0,30,0.00,,,0.00,0,WeatherTracker,2013-03-25 13:15:00,
2013-03-25 06:20:00,46.6,16.1,29.89,NW,319,0.0,0.0,29,0.00,,,0.00,0,WeatherTracker,2013-03-25 13:20:00,
2013-03-25 06:25:00,46.5,16.8,29.89,NW,319,0.0,0.0,30,0.00,,,0.00,5,WeatherTracker,2013-03-25 13:25:00,
2013-03-25 06:35:00,46.5,16.8,29.89,NW,319,0.0,0.0,30,0.00,,,0.00,12,WeatherTracker,2013-03-25 13:35:00,
2013-03-25 06:45:00,46.4,16.7,29.89,NW,319,0.0,0.0,30,0.00,,,0.00,23,WeatherTracker,2013-03-25 13:45:00,
2013-03-25 06:50:00,46.4,16.7,29.89,NW,319,0.0,0.0,30,0.00,,,0.00,26,WeatherTracker,2013-03-25 13:50:00,
2013-03-25 07:00:00,46.4,17.4,29.91,NW,319,0.0,0.0,31,0.00,,,0.00,49,WeatherTracker,2013-03-25 14:00:00,
2013-03-25 07:10:00,46.7,16.2,29.91,NW,319,0.0,0.0,29,0.00,,,0.00,132,WeatherTracker,2013-03-25 14:10:00,
2013-03-25 07:20:00,47.8,16.3,29.91,NW,319,0.0,0.0,28,0.00,,,0.00,37,WeatherTracker,2013-03-25 14:20:00,
2013-03-25 07:30:00,49.1,17.4,29.92,NW,319,0.0,0.0,28,0.00,,,0.00,197,WeatherTracker,2013-03-25 14:30:00,
2013-03-25 07:35:00,50.0,17.4,29.92,NW,319,0.0,0.0,27,0.00,,,0.00,223,WeatherTracker,2013-03-25 14:35:00,
2013-03-25 07:40:00,50.9,17.3,29.92,NW,319,0.0,0.0,26,0.00,,,0.00,283,WeatherTracker,2013-03-25 14:40:00,
2013-03-25 07:45:00,51.9,16.3,29.92,NW,319,0.0,0.0,24,0.00,,,0.00,257,WeatherTracker,2013-03-25 14:45:00,
2013-03-25 07:50:00,53.0,17.2,29.92,NW,319,0.0,0.0,24,0.00,,,0.00,264,WeatherTracker,2013-03-25 14:50:00,
2013-03-25 08:00:00,55.0,16.9,29.92,NW,319,0.0,0.0,22,0.00,,,0.00,362,WeatherTracker,2013-03-25 15:00:00,
2013-03-25 08:10:00,57.1,17.5,29.93,NW,319,0.0,0.0,21,0.00,,,0.00,323,WeatherTracker,2013-03-25 15:10:00,
2013-03-25 08:15:00,58.0,17.2,29.93,NW,319,0.0,0.0,20,0.00,,,0.00,355,WeatherTracker,2013-03-25 15:15:00,
2013-03-25 08:25:00,59.7,16.1,29.93,NW,319,0.0,0.0,18,0.00,,,0.00,397,WeatherTracker,2013-03-25 15:25:00,
2013-03-25 08:30:00,60.6,16.9,29.93,SSW,196,0.0,0.0,18,0.00,,,0.00,367,WeatherTracker,2013-03-25 15:30:00,
2013-03-25 08:40:00,61.7,17.8,29.94,SSW,196,0.0,0.0,18,0.00,,,0.00,446,WeatherTracker,2013-03-25 15:40:00,
2013-03-25 08:45:00,62.2,16.9,29.94,SSW,196,0.0,0.0,17,0.00,,,0.00,445,WeatherTracker,2013-03-25 15:45:00,
2013-03-25 08:55:00,63.3,14.9,29.94,SSW,196,0.0,0.0,15,0.00,,,0.00,54,WeatherTracker,2013-03-25 15:55:00,
2013-03-25 09:05:00,64.3,14.1,29.94,SSW,196,0.0,0.0,14,0.00,,,0.00,522,WeatherTracker,2013-03-25 16:05:00,
2013-03-25 09:15:00,65.6,15.1,29.94,SSW,196,0.0,0.0,14,0.00,,,0.00,476,WeatherTracker,2013-03-25 16:15:00,
2013-03-25 09:20:00,66.1,15.5,29.94,West,261,0.0,0.0,14,0.00,,,0.00,547,WeatherTracker,2013-03-25 16:20:00,
2013-03-25 09:30:00,67.4,16.6,29.94,West,269,0.0,0.0,14,0.00,,,0.00,587,WeatherTracker,2013-03-25 16:30:00,
2013-03-25 09:40:00,68.4,15.6,29.94,SW,223,0.0,0.0,13,0.00,,,0.00,563,WeatherTracker,2013-03-25 16:40:00,
2013-03-25 09:50:00,69.3,14.5,29.93,SW,223,0.0,0.0,12,0.00,,,0.00,520,WeatherTracker,2013-03-25 16:50:00,
2013-03-25 09:55:00,69.9,13.0,29.93,SW,218,1.0,0.0,11,0.00,,,0.00,575,WeatherTracker,2013-03-25 16:55:00,
2013-03-25 10:05:00,70.5,11.3,29.93,WNW,282,0.0,0.0,10,0.00,,,0.00,701,WeatherTracker,2013-03-25 17:05:00,
2013-03-25 10:10:00,70.8,13.7,29.93,SW,218,0.0,0.0,11,0.00,,,0.00,694,WeatherTracker,2013-03-25 17:10:00,
2013-03-25 10:15:00,71.2,11.9,29.92,SW,215,0.0,0.0,10,0.00,,,0.00,564,WeatherTracker,2013-03-25 17:15:00,
2013-03-25 10:20:00,71.8,12.3,29.93,West,261,2.0,0.0,10,0.00,,,0.00,540,WeatherTracker,2013-03-25 17:20:00,
2013-03-25 10:25:00,72.1,12.5,29.93,West,271,2.0,0.0,10,0.00,,,0.00,810,WeatherTracker,2013-03-25 17:25:00,
2013-03-25 10:35:00,72.5,12.8,29.92,West,280,1.0,0.0,10,0.00,,,0.00,844,WeatherTracker,2013-03-25 17:35:00,
2013-03-25 10:45:00,73.0,13.2,29.92,SW,235,1.0,0.0,10,0.00,,,0.00,582,WeatherTracker,2013-03-25 17:45:00,
2013-03-25 10:50:00,73.5,13.6,29.92,SW,235,1.0,0.0,10,0.00,,,0.00,621,WeatherTracker,2013-03-25 17:50:00,
2013-03-25 10:55:00,74.0,14.0,29.92,SW,233,0.0,0.0,10,0.00,,,0.00,868,WeatherTracker,2013-03-25 17:55:00,
2013-03-25 11:00:00,74.6,14.4,29.92,SW,233,0.0,0.0,10,0.00,,,0.00,849,WeatherTracker,2013-03-25 18:00:00,
2013-03-25 11:05:00,75.4,12.7,29.91,SSE,165,1.0,0.0,9,0.00,,,0.00,856,WeatherTracker,2013-03-25 18:05:00,
2013-03-25 11:15:00,75.8,13.0,29.91,SSW,205,2.0,0.0,9,0.00,,,0.00,888,WeatherTracker,2013-03-25 18:15:00,
2013-03-25 11:20:00,76.2,13.3,29.91,South,180,2.0,0.0,9,0.00,,,0.00,796,WeatherTracker,2013-03-25 18:20:00,
2013-03-25 11:25:00,76.6,13.6,29.91,SSW,206,2.0,0.0,9,0.00,,,0.00,761,WeatherTracker,2013-03-25 18:25:00,
2013-03-25 11:30:00,76.5,13.5,29.91,WSW,253,0.0,0.0,9,0.00,,,0.00,888,WeatherTracker,2013-03-25 18:30:00,
2013-03-25 11:40:00,76.7,13.6,29.91,West,261,1.0,0.0,9,0.00,,,0.00,807,WeatherTracker,2013-03-25 18:40:00,
2013-03-25 11:50:00,76.7,13.6,29.90,SW,217,1.0,0.0,9,0.00,,,0.00,816,WeatherTracker,2013-03-25 18:50:00,
2013-03-25 12:00:00,77.4,14.2,29.90,South,180,2.0,0.0,9,0.00,,,0.00,926,WeatherTracker,2013-03-25 19:00:00,
2013-03-25 12:10:00,78.2,14.8,29.89,West,271,4.0,0.0,9,0.00,,,0.00,738,WeatherTracker,2013-03-25 19:10:00,
2013-03-25 12:15:00,78.1,14.7,29.89,SSW,211,5.0,0.0,9,0.00,,,0.00,759,WeatherTracker,2013-03-25 19:15:00,
2013-03-25 12:25:00,77.9,14.5,29.89,WSW,246,3.0,0.0,9,0.00,,,0.00,737,WeatherTracker,2013-03-25 19:25:00,
2013-03-25 12:30:00,77.8,14.5,29.89,West,274,1.0,0.0,9,0.00,,,0.00,788,WeatherTracker,2013-03-25 19:30:00,
2013-03-25 12:35:00,77.8,14.5,29.88,WNW,300,0.0,0.0,9,0.00,,,0.00,724,WeatherTracker,2013-03-25 19:35:00,
2013-03-25 12:40:00,77.9,14.5,29.88,WSW,250,0.0,0.0,9,0.00,,,0.00,698,WeatherTracker,2013-03-25 19:40:00,
2013-03-25 12:45:00,78.0,14.6,29.88,SSW,211,3.0,0.0,9,0.00,,,0.00,691,WeatherTracker,2013-03-25 19:45:00,
2013-03-25 12:50:00,78.5,15.0,29.88,West,265,0.0,0.0,9,0.00,,,0.00,726,WeatherTracker,2013-03-25 19:50:00,
2013-03-25 12:55:00,79.1,15.4,29.88,WNW,294,4.0,0.0,9,0.00,,,0.00,635,WeatherTracker,2013-03-25 19:55:00,
2013-03-25 13:05:00,79.4,15.7,29.87,NNW,327,0.0,0.0,9,0.00,,,0.00,759,WeatherTracker,2013-03-25 20:05:00,
2013-03-25 13:15:00,79.6,15.8,29.87,WSW,252,1.0,0.0,9,0.00,,,0.00,594,WeatherTracker,2013-03-25 20:15:00,
2013-03-25 13:20:00,79.9,16.0,29.87,WSW,253,2.0,0.0,9,0.00,,,0.00,656,WeatherTracker,2013-03-25 20:20:00,
2013-03-25 13:25:00,80.1,16.2,29.86,WSW,244,0.0,0.0,9,0.00,,,0.00,417,WeatherTracker,2013-03-25 20:25:00,
2013-03-25 13:30:00,80.1,16.2,29.87,West,275,1.0,0.0,9,0.00,,,0.00,619,WeatherTracker,2013-03-25 20:30:00,
2013-03-25 13:35:00,80.0,16.1,29.86,South,184,2.0,0.0,9,0.00,,,0.00,580,WeatherTracker,2013-03-25 20:35:00,
2013-03-25 13:45:00,79.8,16.0,29.86,WSW,240,2.0,0.0,9,0.00,,,0.00,330,WeatherTracker,2013-03-25 20:45:00,
2013-03-25 13:50:00,80.0,16.1,29.86,West,266,0.0,0.0,9,0.00,,,0.00,432,WeatherTracker,2013-03-25 20:50:00,
2013-03-25 14:00:00,79.9,16.0,29.85,North,10,4.0,0.0,9,0.00,,,0.00,396,WeatherTracker,2013-03-25 21:00:00,
2013-03-25 14:10:00,80.1,16.2,29.84,South,175,1.0,0.0,9,0.00,,,0.00,418,WeatherTracker,2013-03-25 21:10:00,
2013-03-25 14:15:00,79.9,16.0,29.84,WNW,293,0.0,0.0,9,0.00,,,0.00,406,WeatherTracker,2013-03-25 21:15:00,
2013-03-25 14:25:00,80.0,16.1,29.83,West,275,9.0,0.0,9,0.00,,,0.00,260,WeatherTracker,2013-03-25 21:25:00,
2013-03-25 14:30:00,79.5,15.7,29.84,WNW,298,4.0,0.0,9,0.00,,,0.00,246,WeatherTracker,2013-03-25 21:30:00,
2013-03-25 14:40:00,79.7,15.9,29.83,SSW,206,0.0,0.0,9,0.00,,,0.00,223,WeatherTracker,2013-03-25 21:40:00,
2013-03-25 14:45:00,80.0,16.1,29.83,West,275,2.0,0.0,9,0.00,,,0.00,294,WeatherTracker,2013-03-25 21:45:00,
2013-03-25 14:50:00,80.2,16.3,29.83,SSW,192,1.0,0.0,9,0.00,,,0.00,223,WeatherTracker,2013-03-25 21:50:00,
2013-03-25 14:55:00,80.6,16.6,29.83,South,190,4.0,0.0,9,0.00,,,0.00,257,WeatherTracker,2013-03-25 21:55:00,
2013-03-25 15:05:00,80.8,16.7,29.83,WNW,296,4.0,0.0,9,0.00,,,0.00,79,WeatherTracker,2013-03-25 22:05:00,
2013-03-25 15:15:00,80.7,16.6,29.82,WNW,285,0.0,0.0,9,0.00,,,0.00,589,WeatherTracker,2013-03-25 22:15:00,
2013-03-25 15:20:00,80.9,16.8,29.82,SSE,157,2.0,0.0,9,0.00,,,0.00,432,WeatherTracker,2013-03-25 22:20:00,
2013-03-25 15:30:00,81.1,14.2,29.82,SSW,200,1.0,0.0,8,0.00,,,0.00,506,WeatherTracker,2013-03-25 22:30:00,
2013-03-25 15:35:00,81.1,14.2,29.81,South,188,2.0,0.0,8,0.00,,,0.00,452,WeatherTracker,2013-03-25 22:35:00,
2013-03-25 15:45:00,80.7,16.6,29.81,SE,142,1.0,0.0,9,0.00,,,0.00,555,WeatherTracker,2013-03-25 22:45:00,
2013-03-25 15:50:00,80.4,16.4,29.81,NE,47,1.0,0.0,9,0.00,,,0.00,543,WeatherTracker,2013-03-25 22:50:00,
2013-03-25 16:00:00,80.2,16.3,29.80,SSE,159,5.0,0.0,9,0.00,,,0.00,490,WeatherTracker,2013-03-25 23:00:00,
2013-03-25 16:05:00,80.1,16.2,29.80,ESE,119,5.0,0.0,9,0.00,,,0.00,485,WeatherTracker,2013-03-25 23:05:00,
2013-03-25 16:15:00,80.4,16.4,29.80,SW,228,1.0,0.0,9,0.00,,,0.00,390,WeatherTracker,2013-03-25 23:15:00,
2013-03-25 16:20:00,80.5,16.5,29.80,West,278,7.0,0.0,9,0.00,,,0.00,343,WeatherTracker,2013-03-25 23:20:00,
2013-03-25 16:30:00,80.3,16.3,29.80,WNW,294,2.0,0.0,9,0.00,,,0.00,406,WeatherTracker,2013-03-25 23:30:00,
2013-03-25 16:35:00,80.1,16.2,29.80,SW,235,3.0,0.0,9,0.00,,,0.00,381,WeatherTracker,2013-03-25 23:35:00,
2013-03-25 16:40:00,79.9,16.0,29.80,West,275,2.0,0.0,9,0.00,,,0.00,362,WeatherTracker,2013-03-25 23:40:00,
2013-03-25 16:45:00,79.8,16.0,29.80,SSW,213,3.0,0.0,9,0.00,,,0.00,265,WeatherTracker,2013-03-25 23:45:00,
2013-03-25 16:50:00,79.7,15.9,29.80,WNW,294,5.0,0.0,9,0.00,,,0.00,206,WeatherTracker,2013-03-25 23:50:00,
2013-03-25 17:00:00,79.6,15.8,29.80,West,260,2.0,0.0,9,0.00,,,0.00,209,WeatherTracker,2013-03-26 00:00:00,
2013-03-25 17:05:00,79.4,15.7,29.80,WNW,284,1.0,0.0,9,0.00,,,0.00,213,WeatherTracker,2013-03-26 00:05:00,
2013-03-25 17:15:00,78.9,15.3,29.80,WSW,255,2.0,0.0,9,0.00,,,0.00,98,WeatherTracker,2013-03-26 00:15:00,
2013-03-25 17:25:00,78.4,14.9,29.80,WNW,285,1.0,0.0,9,0.00,,,0.00,32,WeatherTracker,2013-03-26 00:25:00,
2013-03-25 17:30:00,78.1,14.7,29.80,WNW,286,4.0,0.0,9,0.00,,,0.00,47,WeatherTracker,2013-03-26 00:30:00,
2013-03-25 17:35:00,77.8,14.5,29.80,West,269,0.0,0.0,9,0.00,,,0.00,40,WeatherTracker,2013-03-26 00:35:00,
2013-03-25 17:45:00,77.2,16.4,29.80,West,269,2.0,0.0,10,0.00,,,0.00,30,WeatherTracker,2013-03-26 00:45:00,
2013-03-25 17:55:00,76.6,16.0,29.81,WSW,248,3.0,0.0,10,0.00,,,0.00,21,WeatherTracker,2013-03-26 00:55:00,
2013-03-25 18:00:00,76.3,15.7,29.81,West,273,2.0,0.0,10,0.00,,,0.00,19,WeatherTracker,2013-03-26 01:00:00,
2013-03-25 18:05:00,76.1,15.6,29.81,WNW,286,5.0,0.0,10,0.00,,,0.00,18,WeatherTracker,2013-03-26 01:05:00,
2013-03-25 18:15:00,75.6,15.2,29.81,WNW,294,2.0,0.0,10,0.00,,,0.00,14,WeatherTracker,2013-03-26 01:15:00,
2013-03-25 18:20:00,75.3,15.0,29.81,WNW,287,6.0,0.0,10,0.00,,,0.00,11,WeatherTracker,2013-03-26 01:20:00,
2013-03-25 18:30:00,74.6,16.6,29.82,WNW,282,0.0,0.0,11,0.00,,,0.00,5,WeatherTracker,2013-03-26 01:30:00,
2013-03-25 18:35:00,74.3,16.4,29.82,West,261,2.0,0.0,11,0.00,,,0.00,0,WeatherTracker,2013-03-26 01:35:00,
2013-03-25 18:45:00,73.7,15.9,29.82,West,267,1.0,0.0,11,0.00,,,0.00,0,WeatherTracker,2013-03-26 01:45:00,
2013-03-25 18:50:00,73.3,15.6,29.82,West,276,1.0,0.0,11,0.00,,,0.00,0,WeatherTracker,2013-03-26 01:50:00,
2013-03-25 19:00:00,72.8,17.2,29.82,WNW,285,0.0,0.0,12,0.00,,,0.00,0,WeatherTracker,2013-03-26 02:00:00,
2013-03-25 19:05:00,72.6,17.1,29.83,WNW,285,0.0,0.0,12,0.00,,,0.00,0,WeatherTracker,2013-03-26 02:05:00,
2013-03-25 19:10:00,72.3,16.9,29.83,WNW,285,0.0,0.0,12,0.00,,,0.00,0,WeatherTracker,2013-03-26 02:10:00,
2013-03-25 19:20:00,71.9,16.5,29.83,WNW,285,0.0,0.0,12,0.00,,,0.00,0,WeatherTracker,2013-03-26 02:20:00,
2013-03-25 19:30:00,71.3,17.9,29.83,WNW,285,0.0,0.0,13,0.00,,,0.00,0,WeatherTracker,2013-03-26 02:30:00,
2013-03-25 19:35:00,71.0,17.7,29.83,WNW,285,0.0,0.0,13,0.00,,,0.00,0,WeatherTracker,2013-03-26 02:35:00,
2013-03-25 19:45:00,70.0,16.9,29.84,WNW,285,0.0,0.0,13,0.00,,,0.00,0,WeatherTracker,2013-03-26 02:45:00,
2013-03-25 19:50:00,69.7,18.4,29.84,WNW,285,0.0,0.0,14,0.00,,,0.00,0,WeatherTracker,2013-03-26 02:50:00,
2013-03-25 19:55:00,69.4,18.1,29.84,WNW,285,0.0,0.0,14,0.00,,,0.00,0,WeatherTracker,2013-03-26 02:55:00,
2013-03-25 20:05:00,69.0,17.8,29.84,WNW,285,0.0,0.0,14,0.00,,,0.00,0,WeatherTracker,2013-03-26 03:05:00,
2013-03-25 20:10:00,68.8,17.7,29.84,WNW,285,0.0,0.0,14,0.00,,,0.00,0,WeatherTracker,2013-03-26 03:10:00,
2013-03-25 20:20:00,68.4,19.0,29.85,WNW,285,0.0,0.0,15,0.00,,,0.00,0,WeatherTracker,2013-03-26 03:20:00,
2013-03-25 20:25:00,68.0,17.0,29.85,WNW,285,0.0,0.0,14,0.00,,,0.00,0,WeatherTracker,2013-03-26 03:25:00,
2013-03-25 20:35:00,67.5,18.2,29.85,WNW,285,0.0,0.0,15,0.00,,,0.00,0,WeatherTracker,2013-03-26 03:35:00,
2013-03-25 20:45:00,67.1,17.9,29.86,WNW,303,0.0,0.0,15,0.00,,,0.00,0,WeatherTracker,2013-03-26 03:45:00,
2013-03-25 20:50:00,67.0,17.8,29.86,WNW,303,0.0,0.0,15,0.00,,,0.00,0,WeatherTracker,2013-03-26 03:50:00,
2013-03-25 21:00:00,66.8,17.7,29.86,WNW,303,0.0,0.0,15,0.00,,,0.00,0,WeatherTracker,2013-03-26 04:00:00,
2013-03-25 21:05:00,66.7,17.6,29.87,WNW,303,0.0,0.0,15,0.00,,,0.00,0,WeatherTracker,2013-03-26 04:05:00,
2013-03-25 21:10:00,66.6,19.0,29.87,WNW,303,0.0,0.0,16,0.00,,,0.00,0,WeatherTracker,2013-03-26 04:10:00,
2013-03-25 21:15:00,66.3,18.8,29.87,WNW,303,0.0,0.0,16,0.00,,,0.00,0,WeatherTracker,2013-03-26 04:15:00,
2013-03-25 21:25:00,65.6,18.2,29.87,WNW,303,0.0,0.0,16,0.00,,,0.00,0,WeatherTracker,2013-03-26 04:25:00,
2013-03-25 21:30:00,65.2,17.9,29.87,WNW,303,0.0,0.0,16,0.00,,,0.00,0,WeatherTracker,2013-03-26 04:30:00,
2013-03-25 21:40:00,64.5,18.7,29.88,WNW,303,0.0,0.0,17,0.00,,,0.00,0,WeatherTracker,2013-03-26 04:40:00,
2013-03-25 21:50:00,63.7,18.1,29.88,WNW,303,0.0,0.0,17,0.00,,,0.00,0,WeatherTracker,2013-03-26 04:50:00,
2013-03-25 21:55:00,63.4,19.2,29.88,WNW,303,0.0,0.0,18,0.00,,,0.00,0,WeatherTracker,2013-03-26 04:55:00,
2013-03-25 22:00:00,63.1,20.2,29.88,WNW,303,0.0,0.0,19,0.00,,,0.00,0,WeatherTracker,2013-03-26 05:00:00,
2013-03-25 22:10:00,62.5,19.7,29.88,WNW,303,0.0,0.0,19,0.00,,,0.00,0,WeatherTracker,2013-03-26 05:10:00,
2013-03-25 22:20:00,62.0,19.3,29.89,WNW,303,0.0,0.0,19,0.00,,,0.00,0,WeatherTracker,2013-03-26 05:20:00,
2013-03-25 22:25:00,61.7,19.0,29.89,WNW,303,0.0,0.0,19,0.00,,,0.00,0,WeatherTracker,2013-03-26 05:25:00,
2013-03-25 22:30:00,61.5,18.9,29.89,WNW,303,0.0,0.0,19,0.00,,,0.00,0,WeatherTracker,2013-03-26 05:30:00,
2013-03-25 22:40:00,61.3,18.7,29.89,WNW,303,0.0,0.0,19,0.00,,,0.00,0,WeatherTracker,2013-03-26 05:40:00,
2013-03-25 22:45:00,61.3,19.9,29.89,WNW,303,0.0,0.0,20,0.00,,,0.00,0,WeatherTracker,2013-03-26 05:45:00,
2013-03-25 22:55:00,61.3,18.7,29.88,WNW,303,0.0,0.0,19,0.00,,,0.00,0,WeatherTracker,2013-03-26 05:55:00,
2013-03-25 23:00:00,61.3,18.7,29.88,NNW,340,0.0,0.0,19,0.00,,,0.00,0,WeatherTracker,2013-03-26 06:00:00,
2013-03-25 23:05:00,61.4,18.8,29.88,North,355,0.0,0.0,19,0.00,,,0.00,0,WeatherTracker,2013-03-26 06:05:00,
2013-03-25 23:15:00,61.8,19.1,29.88,NE,55,0.0,0.0,19,0.00,,,0.00,0,WeatherTracker,2013-03-26 06:15:00,
2013-03-25 23:25:00,62.0,18.0,29.88,NE,55,0.0,0.0,18,0.00,,,0.00,0,WeatherTracker,2013-03-26 06:25:00,
2013-03-25 23:30:00,62.0,18.0,29.88,NE,55,0.0,0.0,18,0.00,,,0.00,0,WeatherTracker,2013-03-26 06:30:00,
2013-03-25 23:35:00,62.0,19.3,29.88,NE,55,1.0,0.0,19,0.00,,,0.00,0,WeatherTracker,2013-03-26 06:35:00,
2013-03-25 23:45:00,61.9,19.2,29.88,NE,56,0.0,0.0,19,0.00,,,0.00,0,WeatherTracker,2013-03-26 06:45:00,
2013-03-25 23:55:00,61.6,18.9,29.88,NE,56,0.0,0.0,19,0.00,,,0.00,0,WeatherTracker,2013-03-26 06:55:00,